sensor_id;sensor_type;location;lat;lon;timestamp;temperature;humidity
2621;DHT22;1320;48.128;11.592;2022-08-11T00:00:43;20.20;91.00
2621;DHT22;1320;48.128;11.592;2022-08-11T00:03:14;20.20;91.10
2621;DHT22;1320;48.128;11.592;2022-08-11T00:05:53;20.10;91.20
2621;DHT22;1320;48.128;11.592;2022-08-11T00:08:25;20.10;91.20
2621;DHT22;1320;48.128;11.592;2022-08-11T00:11:00;20.00;91.30
2621;DHT22;1320;48.128;11.592;2022-08-11T00:13:38;20.00;91.50
2621;DHT22;1320;48.128;11.592;2022-08-11T00:16:16;20.00;91.60
2621;DHT22;1320;48.128;11.592;2022-08-11T00:18:44;19.90;91.70
2621;DHT22;1320;48.128;11.592;2022-08-11T00:21:11;19.90;91.80
2621;DHT22;1320;48.128;11.592;2022-08-11T00:23:46;19.90;91.80
2621;DHT22;1320;48.128;11.592;2022-08-11T00:26:13;19.80;91.80
2621;DHT22;1320;48.128;11.592;2022-08-11T00:28:40;19.80;92.00
2621;DHT22;1320;48.128;11.592;2022-08-11T00:31:29;19.80;92.00
2621;DHT22;1320;48.128;11.592;2022-08-11T00:33:57;19.70;92.00
2621;DHT22;1320;48.128;11.592;2022-08-11T00:36:37;19.70;92.10
2621;DHT22;1320;48.128;11.592;2022-08-11T00:39:05;19.70;92.40
2621;DHT22;1320;48.128;11.592;2022-08-11T00:52:49;19.50;92.80
2621;DHT22;1320;48.128;11.592;2022-08-11T01:01:57;19.40;93.00
2621;DHT22;1320;48.128;11.592;2022-08-11T01:12:31;19.20;93.20
2621;DHT22;1320;48.128;11.592;2022-08-11T01:41:14;19.00;93.70
2621;DHT22;1320;48.128;11.592;2022-08-11T01:46:51;19.00;93.90
2621;DHT22;1320;48.128;11.592;2022-08-11T01:52:07;19.00;94.00
2621;DHT22;1320;48.128;11.592;2022-08-11T01:55:04;19.00;94.00
2621;DHT22;1320;48.128;11.592;2022-08-11T01:57:33;18.90;94.10
2621;DHT22;1320;48.128;11.592;2022-08-11T02:00:14;18.90;94.10
2621;DHT22;1320;48.128;11.592;2022-08-11T02:11:22;18.80;94.40
2621;DHT22;1320;48.128;11.592;2022-08-11T02:17:22;18.80;94.70
2621;DHT22;1320;48.128;11.592;2022-08-11T02:20:28;18.70;94.70
2621;DHT22;1320;48.128;11.592;2022-08-11T02:23:30;18.70;95.00
2621;DHT22;1320;48.128;11.592;2022-08-11T02:31:49;18.70;95.40
2621;DHT22;1320;48.128;11.592;2022-08-11T02:51:29;18.50;96.10
2621;DHT22;1320;48.128;11.592;2022-08-11T02:57:03;18.40;96.70
2621;DHT22;1320;48.128;11.592;2022-08-11T03:14:19;18.30;97.50
2621;DHT22;1320;48.128;11.592;2022-08-11T03:31:07;18.20;98.10
2621;DHT22;1320;48.128;11.592;2022-08-11T03:33:53;18.10;98.10
2621;DHT22;1320;48.128;11.592;2022-08-11T03:46:15;18.10;98.20
2621;DHT22;1320;48.128;11.592;2022-08-11T04:37:47;18.00;99.90
2621;DHT22;1320;48.128;11.592;2022-08-11T04:48:39;18.00;99.90
2621;DHT22;1320;48.128;11.592;2022-08-11T05:03:45;18.10;99.90
2621;DHT22;1320;48.128;11.592;2022-08-11T05:09:37;18.00;98.80
2621;DHT22;1320;48.128;11.592;2022-08-11T05:12:13;18.10;98.70
2621;DHT22;1320;48.128;11.592;2022-08-11T05:14:50;18.10;98.60
2621;DHT22;1320;48.128;11.592;2022-08-11T05:17:57;18.10;98.50
2621;DHT22;1320;48.128;11.592;2022-08-11T05:20:50;18.20;98.90
2621;DHT22;1320;48.128;11.592;2022-08-11T05:23:39;18.20;99.50
2621;DHT22;1320;48.128;11.592;2022-08-11T05:26:25;18.30;99.80
2621;DHT22;1320;48.128;11.592;2022-08-11T05:29:48;18.30;99.90
2621;DHT22;1320;48.128;11.592;2022-08-11T05:33:04;18.40;99.90
2621;DHT22;1320;48.128;11.592;2022-08-11T05:35:59;18.50;99.90
2621;DHT22;1320;48.128;11.592;2022-08-11T05:38:27;18.50;98.10
2621;DHT22;1320;48.128;11.592;2022-08-11T05:41:14;18.50;97.10
2621;DHT22;1320;48.128;11.592;2022-08-11T05:44:03;18.40;96.70
2621;DHT22;1320;48.128;11.592;2022-08-11T05:46:48;18.30;96.50
2621;DHT22;1320;48.128;11.592;2022-08-11T05:49:34;18.20;96.60
2621;DHT22;1320;48.128;11.592;2022-08-11T05:52:29;18.20;96.70
2621;DHT22;1320;48.128;11.592;2022-08-11T05:55:14;18.20;96.70
2621;DHT22;1320;48.128;11.592;2022-08-11T05:58:02;18.30;96.70
2621;DHT22;1320;48.128;11.592;2022-08-11T06:00:28;18.30;96.60
2621;DHT22;1320;48.128;11.592;2022-08-11T06:02:59;18.30;96.60
2621;DHT22;1320;48.128;11.592;2022-08-11T06:05:36;18.40;96.70
2621;DHT22;1320;48.128;11.592;2022-08-11T06:08:04;18.50;96.60
2621;DHT22;1320;48.128;11.592;2022-08-11T06:10:32;18.50;96.50
2621;DHT22;1320;48.128;11.592;2022-08-11T06:12:59;18.60;96.40
2621;DHT22;1320;48.128;11.592;2022-08-11T06:15:26;18.60;96.50
2621;DHT22;1320;48.128;11.592;2022-08-11T06:17:54;18.70;96.50
2621;DHT22;1320;48.128;11.592;2022-08-11T06:20:21;18.70;96.40
2621;DHT22;1320;48.128;11.592;2022-08-11T06:23:00;18.80;96.30
2621;DHT22;1320;48.128;11.592;2022-08-11T06:25:32;18.90;96.10
2621;DHT22;1320;48.128;11.592;2022-08-11T06:28:03;18.90;94.50
2621;DHT22;1320;48.128;11.592;2022-08-11T06:30:40;19.00;93.30
2621;DHT22;1320;48.128;11.592;2022-08-11T06:36:09;19.20;92.30
2621;DHT22;1320;48.128;11.592;2022-08-11T06:41:20;19.40;92.10
2621;DHT22;1320;48.128;11.592;2022-08-11T06:46:39;19.70;91.50
2621;DHT22;1320;48.128;11.592;2022-08-11T06:49:08;19.80;91.30
2621;DHT22;1320;48.128;11.592;2022-08-11T06:52:03;19.90;91.20
2621;DHT22;1320;48.128;11.592;2022-08-11T06:54:42;20.00;91.20
2621;DHT22;1320;48.128;11.592;2022-08-11T06:57:13;20.10;91.20
2621;DHT22;1320;48.128;11.592;2022-08-11T06:59:58;20.20;91.10
2621;DHT22;1320;48.128;11.592;2022-08-11T07:03:02;20.30;91.40
2621;DHT22;1320;48.128;11.592;2022-08-11T07:05:48;20.50;92.10
2621;DHT22;1320;48.128;11.592;2022-08-11T07:08:34;20.60;92.50
2621;DHT22;1320;48.128;11.592;2022-08-11T07:14:24;20.90;93.80
2621;DHT22;1320;48.128;11.592;2022-08-11T07:17:23;21.10;97.70
2621;DHT22;1320;48.128;11.592;2022-08-11T07:19:53;21.20;97.10
2621;DHT22;1320;48.128;11.592;2022-08-11T07:22:55;21.30;97.30
2621;DHT22;1320;48.128;11.592;2022-08-11T07:25:41;21.50;98.30
2621;DHT22;1320;48.128;11.592;2022-08-11T07:28:28;21.60;97.80
2621;DHT22;1320;48.128;11.592;2022-08-11T07:31:17;21.70;96.70
2621;DHT22;1320;48.128;11.592;2022-08-11T07:33:51;21.80;96.40
2621;DHT22;1320;48.128;11.592;2022-08-11T07:36:18;21.80;97.10
2621;DHT22;1320;48.128;11.592;2022-08-11T07:38:48;21.90;97.80
2621;DHT22;1320;48.128;11.592;2022-08-11T07:41:22;22.00;97.30
2621;DHT22;1320;48.128;11.592;2022-08-11T07:43:51;22.10;99.90
2621;DHT22;1320;48.128;11.592;2022-08-11T07:46:19;22.20;99.90
2621;DHT22;1320;48.128;11.592;2022-08-11T07:49:06;22.40;93.00
2621;DHT22;1320;48.128;11.592;2022-08-11T07:51:52;22.50;92.60
2621;DHT22;1320;48.128;11.592;2022-08-11T07:54:37;22.50;92.00
2621;DHT22;1320;48.128;11.592;2022-08-11T07:57:06;22.60;91.60
2621;DHT22;1320;48.128;11.592;2022-08-11T07:59:52;22.70;91.40
2621;DHT22;1320;48.128;11.592;2022-08-11T08:02:38;22.80;91.40
2621;DHT22;1320;48.128;11.592;2022-08-11T08:05:23;22.90;91.30
2621;DHT22;1320;48.128;11.592;2022-08-11T08:08:08;23.00;91.50
2621;DHT22;1320;48.128;11.592;2022-08-11T08:10:53;23.00;91.60
2621;DHT22;1320;48.128;11.592;2022-08-11T08:13:39;23.10;91.80
2621;DHT22;1320;48.128;11.592;2022-08-11T08:16:24;23.20;91.80
2621;DHT22;1320;48.128;11.592;2022-08-11T08:19:14;23.30;91.80
2621;DHT22;1320;48.128;11.592;2022-08-11T08:21:41;23.40;91.90
2621;DHT22;1320;48.128;11.592;2022-08-11T08:24:08;23.50;92.10
2621;DHT22;1320;48.128;11.592;2022-08-11T08:26:34;23.60;92.30
2621;DHT22;1320;48.128;11.592;2022-08-11T08:29:19;23.60;92.40
2621;DHT22;1320;48.128;11.592;2022-08-11T08:32:06;23.70;92.80
2621;DHT22;1320;48.128;11.592;2022-08-11T08:34:34;23.80;93.00
2621;DHT22;1320;48.128;11.592;2022-08-11T08:37:01;23.80;92.70
2621;DHT22;1320;48.128;11.592;2022-08-11T08:39:27;23.90;92.80
2621;DHT22;1320;48.128;11.592;2022-08-11T08:41:58;24.00;93.30
2621;DHT22;1320;48.128;11.592;2022-08-11T08:44:26;24.10;93.70
2621;DHT22;1320;48.128;11.592;2022-08-11T08:46:57;24.20;81.90
2621;DHT22;1320;48.128;11.592;2022-08-11T08:49:33;24.40;82.10
2621;DHT22;1320;48.128;11.592;2022-08-11T08:52:02;24.50;82.10
2621;DHT22;1320;48.128;11.592;2022-08-11T08:54:37;24.60;82.10
2621;DHT22;1320;48.128;11.592;2022-08-11T08:57:05;24.80;82.00
2621;DHT22;1320;48.128;11.592;2022-08-11T08:59:35;24.90;80.90
2621;DHT22;1320;48.128;11.592;2022-08-11T09:02:03;25.00;80.80
2621;DHT22;1320;48.128;11.592;2022-08-11T09:04:31;25.10;80.20
2621;DHT22;1320;48.128;11.592;2022-08-11T09:07:07;25.20;79.20
2621;DHT22;1320;48.128;11.592;2022-08-11T09:09:34;25.30;78.70
2621;DHT22;1320;48.128;11.592;2022-08-11T09:12:01;25.50;78.60
2621;DHT22;1320;48.128;11.592;2022-08-11T09:14:35;25.50;79.30
2621;DHT22;1320;48.128;11.592;2022-08-11T09:17:22;25.60;78.60
2621;DHT22;1320;48.128;11.592;2022-08-11T09:19:51;25.70;77.80
2621;DHT22;1320;48.128;11.592;2022-08-11T09:22:29;25.80;77.80
2621;DHT22;1320;48.128;11.592;2022-08-11T09:25:14;25.90;77.50
2621;DHT22;1320;48.128;11.592;2022-08-11T09:27:59;26.00;77.10
2621;DHT22;1320;48.128;11.592;2022-08-11T09:30:26;26.10;76.40
2621;DHT22;1320;48.128;11.592;2022-08-11T09:32:54;26.20;76.20
2621;DHT22;1320;48.128;11.592;2022-08-11T09:35:29;26.40;75.30
2621;DHT22;1320;48.128;11.592;2022-08-11T09:37:55;26.50;74.70
2621;DHT22;1320;48.128;11.592;2022-08-11T09:40:44;26.50;75.20
2621;DHT22;1320;48.128;11.592;2022-08-11T09:43:12;26.60;74.30
2621;DHT22;1320;48.128;11.592;2022-08-11T09:45:59;26.60;74.30
2621;DHT22;1320;48.128;11.592;2022-08-11T09:48:28;26.70;73.30
2621;DHT22;1320;48.128;11.592;2022-08-11T09:50:58;26.80;73.80
2621;DHT22;1320;48.128;11.592;2022-08-11T09:53:26;26.80;73.60
2621;DHT22;1320;48.128;11.592;2022-08-11T09:55:52;27.00;73.80
2621;DHT22;1320;48.128;11.592;2022-08-11T09:58:18;27.10;72.30
2621;DHT22;1320;48.128;11.592;2022-08-11T10:00:48;27.30;72.10
2621;DHT22;1320;48.128;11.592;2022-08-11T10:03:25;27.40;70.40
2621;DHT22;1320;48.128;11.592;2022-08-11T10:06:00;27.50;70.10
2621;DHT22;1320;48.128;11.592;2022-08-11T10:08:45;27.60;70.10
2621;DHT22;1320;48.128;11.592;2022-08-11T10:11:15;27.70;69.10
2621;DHT22;1320;48.128;11.592;2022-08-11T10:13:46;27.70;68.90
2621;DHT22;1320;48.128;11.592;2022-08-11T10:16:36;27.80;68.60
2621;DHT22;1320;48.128;11.592;2022-08-11T10:19:04;27.80;68.60
2621;DHT22;1320;48.128;11.592;2022-08-11T10:21:36;27.90;69.00
2621;DHT22;1320;48.128;11.592;2022-08-11T10:24:04;28.00;69.00
2621;DHT22;1320;48.128;11.592;2022-08-11T10:26:49;28.20;68.80
2621;DHT22;1320;48.128;11.592;2022-08-11T10:29:24;28.40;67.20
2621;DHT22;1320;48.128;11.592;2022-08-11T10:32:10;28.70;67.60
2621;DHT22;1320;48.128;11.592;2022-08-11T10:34:55;28.90;66.40
2621;DHT22;1320;48.128;11.592;2022-08-11T10:37:23;29.20;65.50
2621;DHT22;1320;48.128;11.592;2022-08-11T10:39:51;29.40;65.30
2621;DHT22;1320;48.128;11.592;2022-08-11T10:42:17;29.80;64.50
2621;DHT22;1320;48.128;11.592;2022-08-11T10:45:04;30.10;63.70
2621;DHT22;1320;48.128;11.592;2022-08-11T10:47:55;30.40;63.40
2621;DHT22;1320;48.128;11.592;2022-08-11T10:50:22;30.70;62.90
2621;DHT22;1320;48.128;11.592;2022-08-11T10:53:07;30.90;61.60
2621;DHT22;1320;48.128;11.592;2022-08-11T10:55:51;31.00;61.20
2621;DHT22;1320;48.128;11.592;2022-08-11T10:58:39;31.10;61.10
2621;DHT22;1320;48.128;11.592;2022-08-11T11:03:54;31.20;61.20
2621;DHT22;1320;48.128;11.592;2022-08-11T11:06:39;31.30;61.20
2621;DHT22;1320;48.128;11.592;2022-08-11T11:11:50;31.20;60.30
2621;DHT22;1320;48.128;11.592;2022-08-11T11:14:40;31.20;60.60
2621;DHT22;1320;48.128;11.592;2022-08-11T11:17:39;31.40;60.20
2621;DHT22;1320;48.128;11.592;2022-08-11T11:23:32;31.40;59.80
2621;DHT22;1320;48.128;11.592;2022-08-11T11:28:34;31.40;60.10
2621;DHT22;1320;48.128;11.592;2022-08-11T11:31:12;31.40;60.30
2621;DHT22;1320;48.128;11.592;2022-08-11T11:39:08;31.40;59.50
2621;DHT22;1320;48.128;11.592;2022-08-11T11:41:34;31.40;59.60
2621;DHT22;1320;48.128;11.592;2022-08-11T11:44:00;31.50;59.30
2621;DHT22;1320;48.128;11.592;2022-08-11T11:46:27;31.50;59.10
2621;DHT22;1320;48.128;11.592;2022-08-11T11:48:55;31.60;58.60
2621;DHT22;1320;48.128;11.592;2022-08-11T11:51:22;31.60;58.60
2621;DHT22;1320;48.128;11.592;2022-08-11T11:53:49;31.60;58.40
2621;DHT22;1320;48.128;11.592;2022-08-11T11:56:16;31.60;58.60
2621;DHT22;1320;48.128;11.592;2022-08-11T11:58:42;31.60;58.40
2621;DHT22;1320;48.128;11.592;2022-08-11T12:01:27;31.60;58.50
2621;DHT22;1320;48.128;11.592;2022-08-11T12:03:55;31.60;58.20
2621;DHT22;1320;48.128;11.592;2022-08-11T12:06:23;31.80;58.50
2621;DHT22;1320;48.128;11.592;2022-08-11T12:08:55;31.80;58.40
2621;DHT22;1320;48.128;11.592;2022-08-11T12:11:23;31.90;57.90
2621;DHT22;1320;48.128;11.592;2022-08-11T12:14:08;32.10;57.50
2621;DHT22;1320;48.128;11.592;2022-08-11T12:16:39;32.10;57.20
2621;DHT22;1320;48.128;11.592;2022-08-11T12:19:09;32.10;57.10
2621;DHT22;1320;48.128;11.592;2022-08-11T12:21:37;32.20;57.30
2621;DHT22;1320;48.128;11.592;2022-08-11T12:24:03;32.10;57.00
2621;DHT22;1320;48.128;11.592;2022-08-11T12:26:48;32.30;57.50
2621;DHT22;1320;48.128;11.592;2022-08-11T12:29:16;32.30;56.80
2621;DHT22;1320;48.128;11.592;2022-08-11T12:31:45;32.40;56.20
2621;DHT22;1320;48.128;11.592;2022-08-11T12:34:15;32.50;56.10
2621;DHT22;1320;48.128;11.592;2022-08-11T12:36:49;32.50;56.10
2621;DHT22;1320;48.128;11.592;2022-08-11T12:39:20;32.60;56.00
2621;DHT22;1320;48.128;11.592;2022-08-11T12:42:09;32.60;55.80
2621;DHT22;1320;48.128;11.592;2022-08-11T12:44:56;32.70;55.40
2621;DHT22;1320;48.128;11.592;2022-08-11T12:47:46;32.80;55.40
2621;DHT22;1320;48.128;11.592;2022-08-11T12:50:33;32.80;55.30
2621;DHT22;1320;48.128;11.592;2022-08-11T12:53:25;32.80;55.60
2621;DHT22;1320;48.128;11.592;2022-08-11T12:55:54;32.90;55.30
2621;DHT22;1320;48.128;11.592;2022-08-11T12:58:41;33.00;54.90
2621;DHT22;1320;48.128;11.592;2022-08-11T13:01:07;33.10;55.50
2621;DHT22;1320;48.128;11.592;2022-08-11T13:03:53;33.10;54.70
2621;DHT22;1320;48.128;11.592;2022-08-11T13:06:38;33.10;54.60
2621;DHT22;1320;48.128;11.592;2022-08-11T13:09:06;33.20;54.50
2621;DHT22;1320;48.128;11.592;2022-08-11T13:11:35;33.20;54.20
2621;DHT22;1320;48.128;11.592;2022-08-11T13:14:22;33.30;54.10
2621;DHT22;1320;48.128;11.592;2022-08-11T13:16:48;33.20;53.90
2621;DHT22;1320;48.128;11.592;2022-08-11T13:19:34;33.10;54.20
2621;DHT22;1320;48.128;11.592;2022-08-11T13:22:00;33.00;54.10
2621;DHT22;1320;48.128;11.592;2022-08-11T13:24:30;33.00;54.00
2621;DHT22;1320;48.128;11.592;2022-08-11T13:26:59;33.00;54.00
2621;DHT22;1320;48.128;11.592;2022-08-11T13:29:27;33.00;54.70
2621;DHT22;1320;48.128;11.592;2022-08-11T13:31:54;32.90;54.20
2621;DHT22;1320;48.128;11.592;2022-08-11T13:34:23;33.00;54.20
2621;DHT22;1320;48.128;11.592;2022-08-11T13:36:52;33.00;54.10
2621;DHT22;1320;48.128;11.592;2022-08-11T13:39:22;33.00;54.10
2621;DHT22;1320;48.128;11.592;2022-08-11T13:41:49;33.00;54.30
2621;DHT22;1320;48.128;11.592;2022-08-11T13:44:16;33.00;53.90
2621;DHT22;1320;48.128;11.592;2022-08-11T13:46:42;33.00;54.00
2621;DHT22;1320;48.128;11.592;2022-08-11T13:49:09;32.90;54.10
2621;DHT22;1320;48.128;11.592;2022-08-11T13:51:36;32.90;53.80
2621;DHT22;1320;48.128;11.592;2022-08-11T13:54:15;33.00;53.70
2621;DHT22;1320;48.128;11.592;2022-08-11T13:56:45;33.10;53.60
2621;DHT22;1320;48.128;11.592;2022-08-11T13:59:12;33.00;53.30
2621;DHT22;1320;48.128;11.592;2022-08-11T14:01:47;32.90;53.90
2621;DHT22;1320;48.128;11.592;2022-08-11T14:04:22;32.80;53.90
2621;DHT22;1320;48.128;11.592;2022-08-11T14:06:53;32.80;53.80
2621;DHT22;1320;48.128;11.592;2022-08-11T14:09:24;32.80;53.60
2621;DHT22;1320;48.128;11.592;2022-08-11T14:11:54;32.80;54.00
2621;DHT22;1320;48.128;11.592;2022-08-11T14:14:40;32.80;54.00
2621;DHT22;1320;48.128;11.592;2022-08-11T14:17:08;32.80;54.00
2621;DHT22;1320;48.128;11.592;2022-08-11T14:19:39;33.00;53.80
2621;DHT22;1320;48.128;11.592;2022-08-11T14:22:05;33.20;53.90
2621;DHT22;1320;48.128;11.592;2022-08-11T14:24:38;33.30;53.50
2621;DHT22;1320;48.128;11.592;2022-08-11T14:27:07;33.40;54.10
2621;DHT22;1320;48.128;11.592;2022-08-11T14:29:33;33.50;52.80
2621;DHT22;1320;48.128;11.592;2022-08-11T14:32:05;33.70;52.90
2621;DHT22;1320;48.128;11.592;2022-08-11T14:34:32;33.70;52.10
2621;DHT22;1320;48.128;11.592;2022-08-11T14:37:22;33.80;51.80
2621;DHT22;1320;48.128;11.592;2022-08-11T14:39:53;34.00;51.50
2621;DHT22;1320;48.128;11.592;2022-08-11T14:42:22;34.20;51.50
2621;DHT22;1320;48.128;11.592;2022-08-11T14:45:14;34.20;51.40
2621;DHT22;1320;48.128;11.592;2022-08-11T14:48:02;34.30;51.20
2621;DHT22;1320;48.128;11.592;2022-08-11T14:50:31;34.40;51.00
2621;DHT22;1320;48.128;11.592;2022-08-11T14:53:06;34.40;50.50
2621;DHT22;1320;48.128;11.592;2022-08-11T14:55:38;34.40;50.60
2621;DHT22;1320;48.128;11.592;2022-08-11T14:58:26;34.40;50.40
2621;DHT22;1320;48.128;11.592;2022-08-11T15:00:55;34.40;50.30
2621;DHT22;1320;48.128;11.592;2022-08-11T15:03:22;34.30;50.50
2621;DHT22;1320;48.128;11.592;2022-08-11T15:05:53;34.20;50.40
2621;DHT22;1320;48.128;11.592;2022-08-11T15:08:20;34.20;50.60
2621;DHT22;1320;48.128;11.592;2022-08-11T15:11:09;34.10;50.70
2621;DHT22;1320;48.128;11.592;2022-08-11T15:13:55;34.00;50.40
2621;DHT22;1320;48.128;11.592;2022-08-11T15:16:23;33.70;50.50
2621;DHT22;1320;48.128;11.592;2022-08-11T15:19:09;33.50;50.60
2621;DHT22;1320;48.128;11.592;2022-08-11T15:21:35;33.30;51.00
2621;DHT22;1320;48.128;11.592;2022-08-11T15:24:19;33.10;51.20
2621;DHT22;1320;48.128;11.592;2022-08-11T15:26:46;33.00;51.10
2621;DHT22;1320;48.128;11.592;2022-08-11T15:29:31;32.80;51.30
2621;DHT22;1320;48.128;11.592;2022-08-11T15:32:18;32.60;51.40
2621;DHT22;1320;48.128;11.592;2022-08-11T15:34:52;32.40;51.50
2621;DHT22;1320;48.128;11.592;2022-08-11T15:37:40;32.20;51.60
2621;DHT22;1320;48.128;11.592;2022-08-11T15:40:17;32.00;51.60
2621;DHT22;1320;48.128;11.592;2022-08-11T15:46:07;31.80;52.10
2621;DHT22;1320;48.128;11.592;2022-08-11T15:51:54;31.60;51.90
2621;DHT22;1320;48.128;11.592;2022-08-11T15:54:24;31.50;52.20
2621;DHT22;1320;48.128;11.592;2022-08-11T15:56:52;31.50;52.30
2621;DHT22;1320;48.128;11.592;2022-08-11T15:59:20;31.50;52.00
2621;DHT22;1320;48.128;11.592;2022-08-11T16:02:08;31.50;52.00
2621;DHT22;1320;48.128;11.592;2022-08-11T16:04:55;31.60;52.20
2621;DHT22;1320;48.128;11.592;2022-08-11T16:07:26;31.70;52.00
2621;DHT22;1320;48.128;11.592;2022-08-11T16:10:09;31.80;51.70
2621;DHT22;1320;48.128;11.592;2022-08-11T16:12:41;32.10;50.70
2621;DHT22;1320;48.128;11.592;2022-08-11T16:15:28;32.40;50.30
2621;DHT22;1320;48.128;11.592;2022-08-11T16:18:15;32.70;49.50
2621;DHT22;1320;48.128;11.592;2022-08-11T16:20:44;32.90;48.90
2621;DHT22;1320;48.128;11.592;2022-08-11T16:23:11;33.10;49.00
2621;DHT22;1320;48.128;11.592;2022-08-11T16:25:39;33.50;48.80
2621;DHT22;1320;48.128;11.592;2022-08-11T16:28:06;33.90;48.40
2621;DHT22;1320;48.128;11.592;2022-08-11T16:30:35;34.20;48.20
2621;DHT22;1320;48.128;11.592;2022-08-11T16:33:02;34.40;47.70
2621;DHT22;1320;48.128;11.592;2022-08-11T16:35:35;34.60;47.50
2621;DHT22;1320;48.128;11.592;2022-08-11T16:38:22;34.60;47.40
2621;DHT22;1320;48.128;11.592;2022-08-11T16:41:08;34.80;47.60
2621;DHT22;1320;48.128;11.592;2022-08-11T16:43:39;34.90;47.30
2621;DHT22;1320;48.128;11.592;2022-08-11T16:46:26;35.00;47.50
2621;DHT22;1320;48.128;11.592;2022-08-11T16:49:14;35.20;47.00
2621;DHT22;1320;48.128;11.592;2022-08-11T16:51:42;35.20;47.60
2621;DHT22;1320;48.128;11.592;2022-08-11T16:54:08;35.30;46.90
2621;DHT22;1320;48.128;11.592;2022-08-11T16:56:42;35.40;47.10
2621;DHT22;1320;48.128;11.592;2022-08-11T16:59:32;35.40;47.50
2621;DHT22;1320;48.128;11.592;2022-08-11T17:01:57;35.50;47.50
2621;DHT22;1320;48.128;11.592;2022-08-11T17:07:10;35.80;47.50
2621;DHT22;1320;48.128;11.592;2022-08-11T17:10:05;36.00;47.60
2621;DHT22;1320;48.128;11.592;2022-08-11T17:12:51;36.10;47.70
2621;DHT22;1320;48.128;11.592;2022-08-11T17:15:49;36.10;47.80
2621;DHT22;1320;48.128;11.592;2022-08-11T17:18:49;36.00;47.90
2621;DHT22;1320;48.128;11.592;2022-08-11T17:21:24;35.90;48.00
2621;DHT22;1320;48.128;11.592;2022-08-11T17:23:52;35.80;47.70
2621;DHT22;1320;48.128;11.592;2022-08-11T17:26:45;35.60;47.90
2621;DHT22;1320;48.128;11.592;2022-08-11T17:31:50;35.30;48.30
2621;DHT22;1320;48.128;11.592;2022-08-11T17:34:35;35.20;48.00
2621;DHT22;1320;48.128;11.592;2022-08-11T17:37:20;34.80;47.90
2621;DHT22;1320;48.128;11.592;2022-08-11T17:39:48;34.40;48.10
2621;DHT22;1320;48.128;11.592;2022-08-11T17:42:15;33.70;48.30
2621;DHT22;1320;48.128;11.592;2022-08-11T17:45:01;33.10;48.60
2621;DHT22;1320;48.128;11.592;2022-08-11T17:47:47;32.20;49.40
2621;DHT22;1320;48.128;11.592;2022-08-11T17:50:33;31.40;49.70
2621;DHT22;1320;48.128;11.592;2022-08-11T17:53:01;30.70;50.90
2621;DHT22;1320;48.128;11.592;2022-08-11T17:55:46;30.20;51.20
2621;DHT22;1320;48.128;11.592;2022-08-11T17:58:33;29.70;52.00
2621;DHT22;1320;48.128;11.592;2022-08-11T18:01:18;29.20;53.40
2621;DHT22;1320;48.128;11.592;2022-08-11T18:03:45;28.70;53.30
2621;DHT22;1320;48.128;11.592;2022-08-11T18:06:12;28.40;54.00
2621;DHT22;1320;48.128;11.592;2022-08-11T18:08:41;28.00;54.50
2621;DHT22;1320;48.128;11.592;2022-08-11T18:11:26;27.70;54.80
2621;DHT22;1320;48.128;11.592;2022-08-11T18:14:13;27.50;55.20
2621;DHT22;1320;48.128;11.592;2022-08-11T18:16:58;27.20;55.70
2621;DHT22;1320;48.128;11.592;2022-08-11T18:19:43;27.00;55.90
2621;DHT22;1320;48.128;11.592;2022-08-11T18:22:36;26.90;56.10
2621;DHT22;1320;48.128;11.592;2022-08-11T18:25:32;26.70;56.40
2621;DHT22;1320;48.128;11.592;2022-08-11T18:28:23;26.60;56.90
2621;DHT22;1320;48.128;11.592;2022-08-11T18:31:12;26.50;57.30
2621;DHT22;1320;48.128;11.592;2022-08-11T18:34:01;26.40;57.40
2621;DHT22;1320;48.128;11.592;2022-08-11T18:37:08;26.40;57.70
2621;DHT22;1320;48.128;11.592;2022-08-11T18:40:06;26.20;57.80
2621;DHT22;1320;48.128;11.592;2022-08-11T18:42:54;26.20;58.40
2621;DHT22;1320;48.128;11.592;2022-08-11T18:45:41;26.10;59.10
2621;DHT22;1320;48.128;11.592;2022-08-11T18:48:29;26.00;58.60
2621;DHT22;1320;48.128;11.592;2022-08-11T18:51:15;25.90;59.10
2621;DHT22;1320;48.128;11.592;2022-08-11T18:54:03;25.90;59.20
2621;DHT22;1320;48.128;11.592;2022-08-11T18:56:50;25.80;59.50
2621;DHT22;1320;48.128;11.592;2022-08-11T18:59:37;25.70;59.50
2621;DHT22;1320;48.128;11.592;2022-08-11T19:02:25;25.70;59.60
2621;DHT22;1320;48.128;11.592;2022-08-11T19:05:10;25.60;59.70
2621;DHT22;1320;48.128;11.592;2022-08-11T19:07:59;25.50;59.70
2621;DHT22;1320;48.128;11.592;2022-08-11T19:10:47;25.50;59.50
2621;DHT22;1320;48.128;11.592;2022-08-11T19:13:34;25.40;59.60
2621;DHT22;1320;48.128;11.592;2022-08-11T19:16:23;25.30;59.90
2621;DHT22;1320;48.128;11.592;2022-08-11T19:19:10;25.20;60.50
2621;DHT22;1320;48.128;11.592;2022-08-11T19:21:56;25.10;60.80
2621;DHT22;1320;48.128;11.592;2022-08-11T19:24:44;25.10;61.80
2621;DHT22;1320;48.128;11.592;2022-08-11T19:27:30;25.00;62.10
2621;DHT22;1320;48.128;11.592;2022-08-11T19:30:15;25.00;62.40
2621;DHT22;1320;48.128;11.592;2022-08-11T19:33:01;24.90;63.30
2621;DHT22;1320;48.128;11.592;2022-08-11T19:35:47;24.90;63.30
2621;DHT22;1320;48.128;11.592;2022-08-11T19:38:33;24.80;63.20
2621;DHT22;1320;48.128;11.592;2022-08-11T19:41:21;24.80;63.30
2621;DHT22;1320;48.128;11.592;2022-08-11T19:44:06;24.70;63.20
2621;DHT22;1320;48.128;11.592;2022-08-11T19:46:51;24.70;63.40
2621;DHT22;1320;48.128;11.592;2022-08-11T19:49:37;24.70;63.50
2621;DHT22;1320;48.128;11.592;2022-08-11T19:52:23;24.60;63.80
2621;DHT22;1320;48.128;11.592;2022-08-11T19:55:08;24.60;64.00
2621;DHT22;1320;48.128;11.592;2022-08-11T19:57:54;24.50;63.90
2621;DHT22;1320;48.128;11.592;2022-08-11T20:00:40;24.50;64.10
2621;DHT22;1320;48.128;11.592;2022-08-11T20:03:25;24.50;64.30
2621;DHT22;1320;48.128;11.592;2022-08-11T20:06:11;24.40;64.60
2621;DHT22;1320;48.128;11.592;2022-08-11T20:08:59;24.40;64.70
2621;DHT22;1320;48.128;11.592;2022-08-11T20:11:48;24.30;65.00
2621;DHT22;1320;48.128;11.592;2022-08-11T20:14:34;24.30;65.20
2621;DHT22;1320;48.128;11.592;2022-08-11T20:17:23;24.20;65.30
2621;DHT22;1320;48.128;11.592;2022-08-11T20:20:09;24.20;65.70
2621;DHT22;1320;48.128;11.592;2022-08-11T20:23:00;24.10;65.80
2621;DHT22;1320;48.128;11.592;2022-08-11T20:25:46;24.10;66.60
2621;DHT22;1320;48.128;11.592;2022-08-11T20:28:32;24.00;66.80
2621;DHT22;1320;48.128;11.592;2022-08-11T20:31:19;24.00;66.80
2621;DHT22;1320;48.128;11.592;2022-08-11T20:34:04;23.90;67.10
2621;DHT22;1320;48.128;11.592;2022-08-11T20:36:51;23.90;67.30
2621;DHT22;1320;48.128;11.592;2022-08-11T20:39:37;23.80;67.20
2621;DHT22;1320;48.128;11.592;2022-08-11T20:42:22;23.80;65.00
2621;DHT22;1320;48.128;11.592;2022-08-11T20:45:09;23.70;66.20
2621;DHT22;1320;48.128;11.592;2022-08-11T20:47:57;23.70;65.60
2621;DHT22;1320;48.128;11.592;2022-08-11T20:50:49;23.70;65.80
2621;DHT22;1320;48.128;11.592;2022-08-11T20:53:39;23.60;66.20
2621;DHT22;1320;48.128;11.592;2022-08-11T20:56:29;23.60;66.40
2621;DHT22;1320;48.128;11.592;2022-08-11T20:59:17;23.50;67.10
2621;DHT22;1320;48.128;11.592;2022-08-11T21:02:07;23.40;67.10